sensor_id;sensor_type;location;lat;lon;timestamp;P1;durP1;ratioP1;P2;durP2;ratioP2
71896;SDS011;59767;51.344;12.362;2023-03-01T00:01:40;31.63;;;12.88;;
71896;SDS011;59767;51.344;12.362;2023-03-01T00:04:44;25.23;;;11.18;;
71896;SDS011;59767;51.344;12.362;2023-03-01T00:07:51;28.08;;;12.02;;
71896;SDS011;59767;51.344;12.362;2023-03-01T00:11:16;26.75;;;12.25;;
71896;SDS011;59767;51.344;12.362;2023-03-01T00:14:23;25.08;;;11.65;;
71896;SDS011;59767;51.344;12.362;2023-03-01T00:17:27;27.88;;;12.57;;
71896;SDS011;59767;51.344;12.362;2023-03-01T00:20:32;25.00;;;11.63;;
71896;SDS011;59767;51.344;12.362;2023-03-01T00:23:37;23.90;;;10.98;;
71896;SDS011;59767;51.344;12.362;2023-03-01T00:26:42;27.80;;;11.70;;
71896;SDS011;59767;51.344;12.362;2023-03-01T00:29:46;29.92;;;11.75;;
71896;SDS011;59767;51.344;12.362;2023-03-01T00:32:50;27.48;;;11.32;;
71896;SDS011;59767;51.344;12.362;2023-03-01T00:35:57;24.73;;;11.18;;
71896;SDS011;59767;51.344;12.362;2023-03-01T00:39:03;26.42;;;11.40;;
71896;SDS011;59767;51.344;12.362;2023-03-01T00:42:08;42.00;;;16.80;;
71896;SDS011;59767;51.344;12.362;2023-03-01T00:45:13;21.83;;;10.90;;
71896;SDS011;59767;51.344;12.362;2023-03-01T00:48:17;25.48;;;11.20;;
71896;SDS011;59767;51.344;12.362;2023-03-01T00:51:24;21.48;;;10.50;;
71896;SDS011;59767;51.344;12.362;2023-03-01T00:54:30;28.58;;;11.43;;
71896;SDS011;59767;51.344;12.362;2023-03-01T00:57:34;22.80;;;11.10;;
71896;SDS011;59767;51.344;12.362;2023-03-01T01:00:38;24.27;;;10.57;;
71896;SDS011;59767;51.344;12.362;2023-03-01T01:03:43;27.67;;;12.35;;
71896;SDS011;59767;51.344;12.362;2023-03-01T01:07:08;26.65;;;11.38;;
71896;SDS011;59767;51.344;12.362;2023-03-01T01:10:12;28.35;;;11.57;;
71896;SDS011;59767;51.344;12.362;2023-03-01T01:13:20;25.63;;;11.13;;
71896;SDS011;59767;51.344;12.362;2023-03-01T01:16:26;26.45;;;12.02;;
71896;SDS011;59767;51.344;12.362;2023-03-01T01:19:32;29.23;;;11.93;;
71896;SDS011;59767;51.344;12.362;2023-03-01T01:22:36;26.23;;;11.32;;
71896;SDS011;59767;51.344;12.362;2023-03-01T01:25:40;24.13;;;11.10;;
71896;SDS011;59767;51.344;12.362;2023-03-01T01:28:44;25.20;;;10.90;;
71896;SDS011;59767;51.344;12.362;2023-03-01T01:31:49;24.05;;;11.13;;
71896;SDS011;59767;51.344;12.362;2023-03-01T01:34:53;24.90;;;10.75;;
71896;SDS011;59767;51.344;12.362;2023-03-01T01:37:57;27.73;;;10.60;;
71896;SDS011;59767;51.344;12.362;2023-03-01T01:41:01;23.63;;;10.48;;
71896;SDS011;59767;51.344;12.362;2023-03-01T01:44:22;26.88;;;10.18;;
71896;SDS011;59767;51.344;12.362;2023-03-01T01:47:28;20.63;;;9.90;;
71896;SDS011;59767;51.344;12.362;2023-03-01T01:50:32;25.48;;;9.98;;
71896;SDS011;59767;51.344;12.362;2023-03-01T01:53:42;22.85;;;10.35;;
71896;SDS011;59767;51.344;12.362;2023-03-01T01:56:50;24.50;;;10.90;;
71896;SDS011;59767;51.344;12.362;2023-03-01T01:59:59;25.20;;;9.70;;
71896;SDS011;59767;51.344;12.362;2023-03-01T02:03:08;23.70;;;10.38;;
71896;SDS011;59767;51.344;12.362;2023-03-01T02:06:18;22.23;;;10.18;;
71896;SDS011;59767;51.344;12.362;2023-03-01T02:09:25;25.65;;;10.63;;
71896;SDS011;59767;51.344;12.362;2023-03-01T02:12:30;22.13;;;10.25;;
71896;SDS011;59767;51.344;12.362;2023-03-01T02:15:36;23.15;;;10.25;;
71896;SDS011;59767;51.344;12.362;2023-03-01T02:18:41;21.77;;;10.30;;
71896;SDS011;59767;51.344;12.362;2023-03-01T02:21:53;27.90;;;10.68;;
71896;SDS011;59767;51.344;12.362;2023-03-01T02:31:29;25.05;;;10.02;;
71896;SDS011;59767;51.344;12.362;2023-03-01T02:34:45;22.58;;;10.15;;
71896;SDS011;59767;51.344;12.362;2023-03-01T02:37:49;23.30;;;10.02;;
71896;SDS011;59767;51.344;12.362;2023-03-01T02:40:54;23.63;;;9.95;;
71896;SDS011;59767;51.344;12.362;2023-03-01T02:44:01;20.77;;;9.70;;
71896;SDS011;59767;51.344;12.362;2023-03-01T02:47:05;22.65;;;10.10;;
71896;SDS011;59767;51.344;12.362;2023-03-01T02:50:15;29.20;;;10.68;;
71896;SDS011;59767;51.344;12.362;2023-03-01T02:57:00;23.83;;;9.73;;
71896;SDS011;59767;51.344;12.362;2023-03-01T03:00:08;23.70;;;11.05;;
71896;SDS011;59767;51.344;12.362;2023-03-01T03:03:22;22.02;;;9.68;;
71896;SDS011;59767;51.344;12.362;2023-03-01T03:06:27;26.95;;;10.52;;
71896;SDS011;59767;51.344;12.362;2023-03-01T03:09:32;25.58;;;9.95;;
71896;SDS011;59767;51.344;12.362;2023-03-01T03:12:36;22.63;;;10.15;;
71896;SDS011;59767;51.344;12.362;2023-03-01T03:15:42;22.50;;;10.30;;
71896;SDS011;59767;51.344;12.362;2023-03-01T03:18:47;23.13;;;10.90;;
71896;SDS011;59767;51.344;12.362;2023-03-01T03:21:52;22.40;;;10.32;;
71896;SDS011;59767;51.344;12.362;2023-03-01T03:24:56;24.25;;;10.00;;
71896;SDS011;59767;51.344;12.362;2023-03-01T03:28:00;25.55;;;10.10;;
71896;SDS011;59767;51.344;12.362;2023-03-01T03:31:05;24.30;;;10.10;;
71896;SDS011;59767;51.344;12.362;2023-03-01T03:34:10;24.85;;;10.38;;
71896;SDS011;59767;51.344;12.362;2023-03-01T03:37:21;23.45;;;10.38;;
71896;SDS011;59767;51.344;12.362;2023-03-01T03:40:45;23.35;;;10.25;;
71896;SDS011;59767;51.344;12.362;2023-03-01T03:43:51;24.20;;;9.68;;
71896;SDS011;59767;51.344;12.362;2023-03-01T03:46:55;22.95;;;9.65;;
71896;SDS011;59767;51.344;12.362;2023-03-01T03:49:59;24.02;;;10.20;;
71896;SDS011;59767;51.344;12.362;2023-03-01T03:53:04;24.20;;;10.13;;
71896;SDS011;59767;51.344;12.362;2023-03-01T03:56:11;23.70;;;10.18;;
71896;SDS011;59767;51.344;12.362;2023-03-01T03:59:15;24.13;;;10.70;;
71896;SDS011;59767;51.344;12.362;2023-03-01T04:02:20;21.38;;;10.07;;
71896;SDS011;59767;51.344;12.362;2023-03-01T04:05:31;24.58;;;10.25;;
71896;SDS011;59767;51.344;12.362;2023-03-01T04:08:35;23.65;;;10.73;;
71896;SDS011;59767;51.344;12.362;2023-03-01T04:11:39;21.67;;;10.10;;
71896;SDS011;59767;51.344;12.362;2023-03-01T04:14:43;22.88;;;9.98;;
71896;SDS011;59767;51.344;12.362;2023-03-01T04:17:48;20.83;;;9.95;;
71896;SDS011;59767;51.344;12.362;2023-03-01T04:20:52;21.90;;;10.35;;
71896;SDS011;59767;51.344;12.362;2023-03-01T04:23:58;23.67;;;10.27;;
71896;SDS011;59767;51.344;12.362;2023-03-01T04:27:03;21.27;;;9.88;;
71896;SDS011;59767;51.344;12.362;2023-03-01T04:30:07;25.95;;;10.82;;
71896;SDS011;59767;51.344;12.362;2023-03-01T04:33:12;23.20;;;10.15;;
71896;SDS011;59767;51.344;12.362;2023-03-01T04:36:17;23.05;;;10.63;;
71896;SDS011;59767;51.344;12.362;2023-03-01T04:39:23;24.17;;;10.43;;
71896;SDS011;59767;51.344;12.362;2023-03-01T04:42:27;21.95;;;10.52;;
71896;SDS011;59767;51.344;12.362;2023-03-01T04:45:32;23.60;;;10.60;;
71896;SDS011;59767;51.344;12.362;2023-03-01T04:48:38;21.70;;;10.60;;
71896;SDS011;59767;51.344;12.362;2023-03-01T04:51:43;22.17;;;10.52;;
71896;SDS011;59767;51.344;12.362;2023-03-01T04:54:47;30.60;;;11.30;;
71896;SDS011;59767;51.344;12.362;2023-03-01T04:57:51;26.02;;;11.30;;
71896;SDS011;59767;51.344;12.362;2023-03-01T05:00:57;25.10;;;10.77;;
71896;SDS011;59767;51.344;12.362;2023-03-01T05:04:01;25.60;;;10.95;;
71896;SDS011;59767;51.344;12.362;2023-03-01T05:07:07;23.55;;;11.77;;
71896;SDS011;59767;51.344;12.362;2023-03-01T05:10:10;24.33;;;11.10;;
71896;SDS011;59767;51.344;12.362;2023-03-01T05:13:15;27.65;;;11.38;;
71896;SDS011;59767;51.344;12.362;2023-03-01T05:16:24;22.38;;;10.95;;
71896;SDS011;59767;51.344;12.362;2023-03-01T05:19:29;26.77;;;11.80;;
71896;SDS011;59767;51.344;12.362;2023-03-01T05:22:34;31.33;;;11.40;;
71896;SDS011;59767;51.344;12.362;2023-03-01T05:25:39;26.08;;;11.80;;
71896;SDS011;59767;51.344;12.362;2023-03-01T05:28:44;24.88;;;10.95;;
71896;SDS011;59767;51.344;12.362;2023-03-01T05:31:48;24.35;;;11.77;;
71896;SDS011;59767;51.344;12.362;2023-03-01T05:34:52;27.13;;;11.68;;
71896;SDS011;59767;51.344;12.362;2023-03-01T05:37:58;25.17;;;11.15;;
71896;SDS011;59767;51.344;12.362;2023-03-01T05:41:03;22.67;;;10.98;;
71896;SDS011;59767;51.344;12.362;2023-03-01T05:44:07;30.00;;;12.40;;
71896;SDS011;59767;51.344;12.362;2023-03-01T05:47:11;26.00;;;11.63;;
71896;SDS011;59767;51.344;12.362;2023-03-01T05:50:19;25.65;;;11.77;;
71896;SDS011;59767;51.344;12.362;2023-03-01T05:53:28;26.80;;;12.70;;
71896;SDS011;59767;51.344;12.362;2023-03-01T05:56:33;25.50;;;12.55;;
71896;SDS011;59767;51.344;12.362;2023-03-01T05:59:38;24.10;;;12.30;;
71896;SDS011;59767;51.344;12.362;2023-03-01T06:02:42;24.23;;;11.90;;
71896;SDS011;59767;51.344;12.362;2023-03-01T06:05:46;25.15;;;12.05;;
71896;SDS011;59767;51.344;12.362;2023-03-01T06:08:51;26.67;;;12.27;;
71896;SDS011;59767;51.344;12.362;2023-03-01T06:11:55;28.75;;;12.63;;
71896;SDS011;59767;51.344;12.362;2023-03-01T06:15:00;28.85;;;12.68;;
71896;SDS011;59767;51.344;12.362;2023-03-01T06:18:04;30.77;;;12.45;;
71896;SDS011;59767;51.344;12.362;2023-03-01T06:21:08;27.58;;;12.02;;
71896;SDS011;59767;51.344;12.362;2023-03-01T06:24:12;29.33;;;11.95;;
71896;SDS011;59767;51.344;12.362;2023-03-01T06:27:16;30.60;;;12.10;;
71896;SDS011;59767;51.344;12.362;2023-03-01T06:30:21;27.75;;;12.02;;
71896;SDS011;59767;51.344;12.362;2023-03-01T06:33:27;27.95;;;12.70;;
71896;SDS011;59767;51.344;12.362;2023-03-01T06:36:31;27.45;;;12.45;;
71896;SDS011;59767;51.344;12.362;2023-03-01T06:39:36;27.90;;;12.68;;
71896;SDS011;59767;51.344;12.362;2023-03-01T06:42:40;30.10;;;12.38;;
71896;SDS011;59767;51.344;12.362;2023-03-01T06:45:47;26.60;;;12.60;;
71896;SDS011;59767;51.344;12.362;2023-03-01T06:48:51;28.30;;;12.52;;
71896;SDS011;59767;51.344;12.362;2023-03-01T06:51:56;29.73;;;12.93;;
71896;SDS011;59767;51.344;12.362;2023-03-01T06:55:01;29.75;;;13.18;;
71896;SDS011;59767;51.344;12.362;2023-03-01T06:58:05;27.80;;;12.98;;
71896;SDS011;59767;51.344;12.362;2023-03-01T07:01:09;26.63;;;12.30;;
71896;SDS011;59767;51.344;12.362;2023-03-01T07:04:13;27.83;;;11.90;;
71896;SDS011;59767;51.344;12.362;2023-03-01T07:07:18;29.95;;;12.10;;
71896;SDS011;59767;51.344;12.362;2023-03-01T07:10:22;29.42;;;12.25;;
71896;SDS011;59767;51.344;12.362;2023-03-01T07:13:27;28.75;;;11.48;;
71896;SDS011;59767;51.344;12.362;2023-03-01T07:16:31;23.63;;;11.18;;
71896;SDS011;59767;51.344;12.362;2023-03-01T07:19:36;33.08;;;11.85;;
71896;SDS011;59767;51.344;12.362;2023-03-01T07:22:40;27.48;;;12.05;;
71896;SDS011;59767;51.344;12.362;2023-03-01T07:25:51;31.40;;;12.60;;
71896;SDS011;59767;51.344;12.362;2023-03-01T07:28:58;29.38;;;12.48;;
71896;SDS011;59767;51.344;12.362;2023-03-01T07:32:03;28.83;;;12.65;;
71896;SDS011;59767;51.344;12.362;2023-03-01T07:35:08;27.67;;;13.57;;
71896;SDS011;59767;51.344;12.362;2023-03-01T07:38:13;29.15;;;12.48;;
71896;SDS011;59767;51.344;12.362;2023-03-01T07:41:20;35.67;;;12.73;;
71896;SDS011;59767;51.344;12.362;2023-03-01T07:44:24;29.85;;;12.52;;
71896;SDS011;59767;51.344;12.362;2023-03-01T07:47:28;37.58;;;13.27;;
71896;SDS011;59767;51.344;12.362;2023-03-01T07:50:32;38.50;;;13.40;;
71896;SDS011;59767;51.344;12.362;2023-03-01T07:53:37;30.27;;;12.25;;
71896;SDS011;59767;51.344;12.362;2023-03-01T07:56:41;28.85;;;12.82;;
71896;SDS011;59767;51.344;12.362;2023-03-01T07:59:45;31.77;;;12.75;;
71896;SDS011;59767;51.344;12.362;2023-03-01T08:02:49;29.20;;;12.77;;
71896;SDS011;59767;51.344;12.362;2023-03-01T08:05:53;30.40;;;12.38;;
71896;SDS011;59767;51.344;12.362;2023-03-01T08:08:57;30.73;;;12.60;;
71896;SDS011;59767;51.344;12.362;2023-03-01T08:12:02;31.20;;;13.48;;
71896;SDS011;59767;51.344;12.362;2023-03-01T08:15:08;28.33;;;13.60;;
71896;SDS011;59767;51.344;12.362;2023-03-01T08:18:12;31.67;;;13.70;;
71896;SDS011;59767;51.344;12.362;2023-03-01T08:21:16;25.73;;;12.32;;
71896;SDS011;59767;51.344;12.362;2023-03-01T08:24:21;30.70;;;12.70;;
71896;SDS011;59767;51.344;12.362;2023-03-01T08:27:26;30.75;;;12.48;;
71896;SDS011;59767;51.344;12.362;2023-03-01T08:30:30;29.70;;;12.68;;
71896;SDS011;59767;51.344;12.362;2023-03-01T08:33:34;32.45;;;13.50;;
71896;SDS011;59767;51.344;12.362;2023-03-01T08:36:39;29.42;;;13.30;;
71896;SDS011;59767;51.344;12.362;2023-03-01T08:39:45;27.65;;;12.25;;
71896;SDS011;59767;51.344;12.362;2023-03-01T08:42:50;27.90;;;13.18;;
71896;SDS011;59767;51.344;12.362;2023-03-01T08:45:54;29.23;;;13.90;;
71896;SDS011;59767;51.344;12.362;2023-03-01T08:48:59;30.88;;;13.77;;
71896;SDS011;59767;51.344;12.362;2023-03-01T08:52:03;30.30;;;13.88;;
71896;SDS011;59767;51.344;12.362;2023-03-01T08:55:08;30.90;;;13.88;;
71896;SDS011;59767;51.344;12.362;2023-03-01T08:58:12;36.53;;;13.43;;
71896;SDS011;59767;51.344;12.362;2023-03-01T09:01:17;30.38;;;12.65;;
71896;SDS011;59767;51.344;12.362;2023-03-01T09:04:22;32.92;;;13.80;;
71896;SDS011;59767;51.344;12.362;2023-03-01T09:07:26;33.33;;;14.00;;
71896;SDS011;59767;51.344;12.362;2023-03-01T09:10:36;33.08;;;13.90;;
71896;SDS011;59767;51.344;12.362;2023-03-01T09:13:41;34.90;;;14.18;;
71896;SDS011;59767;51.344;12.362;2023-03-01T09:16:47;30.83;;;14.13;;
71896;SDS011;59767;51.344;12.362;2023-03-01T09:19:51;32.67;;;13.63;;
71896;SDS011;59767;51.344;12.362;2023-03-01T09:22:55;29.98;;;13.68;;
71896;SDS011;59767;51.344;12.362;2023-03-01T09:25:59;27.52;;;13.45;;
71896;SDS011;59767;51.344;12.362;2023-03-01T09:29:04;33.72;;;14.85;;
71896;SDS011;59767;51.344;12.362;2023-03-01T09:32:08;34.33;;;14.35;;
71896;SDS011;59767;51.344;12.362;2023-03-01T09:35:13;28.67;;;14.05;;
71896;SDS011;59767;51.344;12.362;2023-03-01T09:38:17;32.95;;;14.00;;
71896;SDS011;59767;51.344;12.362;2023-03-01T09:44:46;31.35;;;14.93;;
71896;SDS011;59767;51.344;12.362;2023-03-01T09:47:51;32.05;;;14.30;;
71896;SDS011;59767;51.344;12.362;2023-03-01T09:50:56;29.20;;;13.88;;
71896;SDS011;59767;51.344;12.362;2023-03-01T09:54:04;31.98;;;15.00;;
71896;SDS011;59767;51.344;12.362;2023-03-01T10:00:37;30.35;;;14.23;;
71896;SDS011;59767;51.344;12.362;2023-03-01T10:07:37;30.77;;;14.30;;
71896;SDS011;59767;51.344;12.362;2023-03-01T10:11:19;29.10;;;13.90;;
71896;SDS011;59767;51.344;12.362;2023-03-01T10:14:38;30.88;;;14.02;;
71896;SDS011;59767;51.344;12.362;2023-03-01T10:18:00;28.90;;;13.95;;
71896;SDS011;59767;51.344;12.362;2023-03-01T10:21:15;29.75;;;13.75;;
71896;SDS011;59767;51.344;12.362;2023-03-01T10:24:21;30.23;;;13.70;;
71896;SDS011;59767;51.344;12.362;2023-03-01T10:30:58;30.20;;;13.98;;
71896;SDS011;59767;51.344;12.362;2023-03-01T10:34:10;28.05;;;13.65;;
71896;SDS011;59767;51.344;12.362;2023-03-01T10:37:17;30.15;;;14.52;;
71896;SDS011;59767;51.344;12.362;2023-03-01T10:40:24;29.38;;;13.10;;
71896;SDS011;59767;51.344;12.362;2023-03-01T10:43:40;28.90;;;13.57;;
71896;SDS011;59767;51.344;12.362;2023-03-01T10:46:49;28.23;;;13.68;;
71896;SDS011;59767;51.344;12.362;2023-03-01T10:50:05;31.23;;;13.57;;
71896;SDS011;59767;51.344;12.362;2023-03-01T10:53:23;29.02;;;13.40;;
71896;SDS011;59767;51.344;12.362;2023-03-01T10:56:51;26.02;;;12.85;;
71896;SDS011;59767;51.344;12.362;2023-03-01T11:00:10;26.75;;;12.43;;
71896;SDS011;59767;51.344;12.362;2023-03-01T11:03:26;29.13;;;12.27;;
71896;SDS011;59767;51.344;12.362;2023-03-01T11:06:35;25.77;;;12.57;;
71896;SDS011;59767;51.344;12.362;2023-03-01T11:09:43;26.60;;;12.45;;
71896;SDS011;59767;51.344;12.362;2023-03-01T11:12:48;25.85;;;13.48;;
71896;SDS011;59767;51.344;12.362;2023-03-01T11:15:59;28.15;;;14.75;;
71896;SDS011;59767;51.344;12.362;2023-03-01T11:22:18;29.55;;;14.75;;
71896;SDS011;59767;51.344;12.362;2023-03-01T11:25:26;31.33;;;15.10;;
71896;SDS011;59767;51.344;12.362;2023-03-01T11:28:33;30.13;;;14.68;;
71896;SDS011;59767;51.344;12.362;2023-03-01T11:31:41;28.17;;;13.95;;
71896;SDS011;59767;51.344;12.362;2023-03-01T11:35:02;31.80;;;14.95;;
71896;SDS011;59767;51.344;12.362;2023-03-01T11:38:21;28.23;;;14.00;;
71896;SDS011;59767;51.344;12.362;2023-03-01T11:41:29;30.13;;;14.88;;
71896;SDS011;59767;51.344;12.362;2023-03-01T11:44:36;28.42;;;15.35;;
71896;SDS011;59767;51.344;12.362;2023-03-01T11:54:58;29.00;;;15.18;;
71896;SDS011;59767;51.344;12.362;2023-03-01T12:01:57;27.98;;;14.95;;
71896;SDS011;59767;51.344;12.362;2023-03-01T12:19:50;29.95;;;14.30;;
71896;SDS011;59767;51.344;12.362;2023-03-01T12:26:34;25.17;;;12.27;;
71896;SDS011;59767;51.344;12.362;2023-03-01T12:29:49;22.48;;;11.40;;
71896;SDS011;59767;51.344;12.362;2023-03-01T12:33:02;20.92;;;10.43;;
71896;SDS011;59767;51.344;12.362;2023-03-01T12:39:51;23.10;;;11.75;;
71896;SDS011;59767;51.344;12.362;2023-03-01T12:44:20;26.10;;;11.77;;
71896;SDS011;59767;51.344;12.362;2023-03-01T12:47:13;20.83;;;11.32;;
71896;SDS011;59767;51.344;12.362;2023-03-01T12:50:24;24.67;;;11.55;;
71896;SDS011;59767;51.344;12.362;2023-03-01T12:53:36;24.02;;;11.50;;
71896;SDS011;59767;51.344;12.362;2023-03-01T12:56:44;25.85;;;11.85;;
71896;SDS011;59767;51.344;12.362;2023-03-01T13:07:23;23.48;;;11.35;;
71896;SDS011;59767;51.344;12.362;2023-03-01T13:10:43;24.95;;;12.38;;
71896;SDS011;59767;51.344;12.362;2023-03-01T13:14:18;24.42;;;12.93;;
71896;SDS011;59767;51.344;12.362;2023-03-01T13:17:30;23.73;;;11.85;;
71896;SDS011;59767;51.344;12.362;2023-03-01T13:23:47;20.85;;;10.30;;
71896;SDS011;59767;51.344;12.362;2023-03-01T13:30:38;22.63;;;10.77;;
71896;SDS011;59767;51.344;12.362;2023-03-01T13:33:49;21.05;;;11.15;;
71896;SDS011;59767;51.344;12.362;2023-03-01T13:37:10;24.35;;;11.07;;
71896;SDS011;59767;51.344;12.362;2023-03-01T13:40:56;20.13;;;10.43;;
71896;SDS011;59767;51.344;12.362;2023-03-01T13:47:16;24.58;;;10.50;;
71896;SDS011;59767;51.344;12.362;2023-03-01T13:50:25;20.13;;;9.88;;
71896;SDS011;59767;51.344;12.362;2023-03-01T13:53:34;25.70;;;10.50;;
71896;SDS011;59767;51.344;12.362;2023-03-01T13:56:43;26.10;;;9.68;;
71896;SDS011;59767;51.344;12.362;2023-03-01T13:59:47;21.25;;;9.07;;
71896;SDS011;59767;51.344;12.362;2023-03-01T14:06:12;19.65;;;9.25;;
71896;SDS011;59767;51.344;12.362;2023-03-01T14:09:25;22.05;;;9.75;;
71896;SDS011;59767;51.344;12.362;2023-03-01T14:16:12;19.17;;;9.57;;
71896;SDS011;59767;51.344;12.362;2023-03-01T14:19:36;19.85;;;8.43;;
71896;SDS011;59767;51.344;12.362;2023-03-01T14:22:41;22.60;;;8.82;;
71896;SDS011;59767;51.344;12.362;2023-03-01T14:25:51;19.58;;;8.82;;
71896;SDS011;59767;51.344;12.362;2023-03-01T14:28:59;18.20;;;7.63;;
71896;SDS011;59767;51.344;12.362;2023-03-01T14:35:19;18.90;;;7.90;;
71896;SDS011;59767;51.344;12.362;2023-03-01T14:38:29;16.05;;;7.45;;
71896;SDS011;59767;51.344;12.362;2023-03-01T14:41:49;19.00;;;8.05;;
71896;SDS011;59767;51.344;12.362;2023-03-01T14:44:54;18.70;;;7.78;;
71896;SDS011;59767;51.344;12.362;2023-03-01T14:48:00;14.98;;;6.97;;
71896;SDS011;59767;51.344;12.362;2023-03-01T14:51:06;16.00;;;7.10;;
71896;SDS011;59767;51.344;12.362;2023-03-01T14:54:18;17.85;;;7.38;;
71896;SDS011;59767;51.344;12.362;2023-03-01T14:57:26;17.67;;;7.50;;
71896;SDS011;59767;51.344;12.362;2023-03-01T15:00:32;17.58;;;8.15;;
71896;SDS011;59767;51.344;12.362;2023-03-01T15:03:40;16.40;;;7.40;;
71896;SDS011;59767;51.344;12.362;2023-03-01T15:06:52;17.55;;;7.60;;
71896;SDS011;59767;51.344;12.362;2023-03-01T15:09:58;17.73;;;6.93;;
71896;SDS011;59767;51.344;12.362;2023-03-01T15:13:22;17.27;;;6.90;;
71896;SDS011;59767;51.344;12.362;2023-03-01T15:16:31;16.35;;;7.22;;
71896;SDS011;59767;51.344;12.362;2023-03-01T15:19:36;19.25;;;7.43;;
71896;SDS011;59767;51.344;12.362;2023-03-01T15:22:40;16.08;;;7.05;;
71896;SDS011;59767;51.344;12.362;2023-03-01T15:25:52;15.30;;;7.60;;
71896;SDS011;59767;51.344;12.362;2023-03-01T15:29:00;16.17;;;7.47;;
71896;SDS011;59767;51.344;12.362;2023-03-01T15:35:43;15.75;;;7.10;;
71896;SDS011;59767;51.344;12.362;2023-03-01T15:38:55;17.83;;;6.95;;
71896;SDS011;59767;51.344;12.362;2023-03-01T15:42:01;18.23;;;7.13;;
71896;SDS011;59767;51.344;12.362;2023-03-01T15:48:24;18.38;;;7.38;;
71896;SDS011;59767;51.344;12.362;2023-03-01T15:51:33;17.70;;;6.85;;
71896;SDS011;59767;51.344;12.362;2023-03-01T15:54:39;14.73;;;6.30;;
71896;SDS011;59767;51.344;12.362;2023-03-01T15:57:44;15.00;;;6.72;;
71896;SDS011;59767;51.344;12.362;2023-03-01T16:00:48;15.55;;;6.38;;
71896;SDS011;59767;51.344;12.362;2023-03-01T16:04:05;14.50;;;6.85;;
71896;SDS011;59767;51.344;12.362;2023-03-01T16:07:09;15.75;;;6.82;;
71896;SDS011;59767;51.344;12.362;2023-03-01T16:10:14;17.63;;;7.05;;
71896;SDS011;59767;51.344;12.362;2023-03-01T16:13:18;17.95;;;6.82;;
71896;SDS011;59767;51.344;12.362;2023-03-01T16:16:22;13.95;;;6.40;;
71896;SDS011;59767;51.344;12.362;2023-03-01T16:19:27;14.07;;;6.70;;
71896;SDS011;59767;51.344;12.362;2023-03-01T16:22:31;16.70;;;6.78;;
71896;SDS011;59767;51.344;12.362;2023-03-01T16:25:35;16.70;;;7.00;;
71896;SDS011;59767;51.344;12.362;2023-03-01T16:28:40;17.23;;;7.28;;
71896;SDS011;59767;51.344;12.362;2023-03-01T16:31:45;19.75;;;6.75;;
71896;SDS011;59767;51.344;12.362;2023-03-01T16:34:49;20.15;;;7.03;;
71896;SDS011;59767;51.344;12.362;2023-03-01T16:37:53;15.65;;;6.88;;
71896;SDS011;59767;51.344;12.362;2023-03-01T16:40:58;16.80;;;7.18;;
71896;SDS011;59767;51.344;12.362;2023-03-01T16:44:01;17.23;;;7.05;;
71896;SDS011;59767;51.344;12.362;2023-03-01T16:47:05;16.83;;;7.15;;
71896;SDS011;59767;51.344;12.362;2023-03-01T16:50:09;17.48;;;7.05;;
71896;SDS011;59767;51.344;12.362;2023-03-01T16:53:14;18.00;;;6.90;;
71896;SDS011;59767;51.344;12.362;2023-03-01T16:56:19;15.52;;;7.28;;
71896;SDS011;59767;51.344;12.362;2023-03-01T16:59:23;14.50;;;6.57;;
71896;SDS011;59767;51.344;12.362;2023-03-01T17:02:29;18.17;;;7.57;;
71896;SDS011;59767;51.344;12.362;2023-03-01T17:05:32;18.15;;;7.05;;
71896;SDS011;59767;51.344;12.362;2023-03-01T17:08:37;15.57;;;6.90;;
71896;SDS011;59767;51.344;12.362;2023-03-01T17:11:42;16.50;;;7.28;;
71896;SDS011;59767;51.344;12.362;2023-03-01T17:14:47;17.33;;;6.78;;
71896;SDS011;59767;51.344;12.362;2023-03-01T17:17:53;20.05;;;7.78;;
71896;SDS011;59767;51.344;12.362;2023-03-01T17:20:57;17.35;;;7.15;;
71896;SDS011;59767;51.344;12.362;2023-03-01T17:24:02;18.38;;;7.57;;
71896;SDS011;59767;51.344;12.362;2023-03-01T17:27:07;18.90;;;7.32;;
71896;SDS011;59767;51.344;12.362;2023-03-01T17:30:12;16.30;;;7.40;;
71896;SDS011;59767;51.344;12.362;2023-03-01T17:33:18;18.05;;;7.82;;
71896;SDS011;59767;51.344;12.362;2023-03-01T17:36:23;16.15;;;7.88;;
71896;SDS011;59767;51.344;12.362;2023-03-01T17:39:27;21.92;;;10.05;;
71896;SDS011;59767;51.344;12.362;2023-03-01T17:42:38;28.83;;;11.98;;
71896;SDS011;59767;51.344;12.362;2023-03-01T17:45:43;22.13;;;8.68;;
71896;SDS011;59767;51.344;12.362;2023-03-01T17:48:51;16.60;;;8.10;;
71896;SDS011;59767;51.344;12.362;2023-03-01T17:51:55;19.48;;;7.93;;
71896;SDS011;59767;51.344;12.362;2023-03-01T17:54:59;20.65;;;7.65;;
71896;SDS011;59767;51.344;12.362;2023-03-01T17:58:04;19.63;;;7.28;;
71896;SDS011;59767;51.344;12.362;2023-03-01T18:01:13;17.38;;;7.90;;
71896;SDS011;59767;51.344;12.362;2023-03-01T18:04:19;15.32;;;6.90;;
71896;SDS011;59767;51.344;12.362;2023-03-01T18:07:27;19.45;;;7.25;;
71896;SDS011;59767;51.344;12.362;2023-03-01T18:10:31;20.33;;;8.48;;
71896;SDS011;59767;51.344;12.362;2023-03-01T18:13:39;18.05;;;7.57;;
71896;SDS011;59767;51.344;12.362;2023-03-01T18:16:43;18.48;;;7.47;;
71896;SDS011;59767;51.344;12.362;2023-03-01T18:19:47;17.05;;;7.50;;
71896;SDS011;59767;51.344;12.362;2023-03-01T18:22:51;20.05;;;8.85;;
71896;SDS011;59767;51.344;12.362;2023-03-01T18:25:59;22.23;;;9.10;;
71896;SDS011;59767;51.344;12.362;2023-03-01T18:29:07;20.35;;;8.30;;
71896;SDS011;59767;51.344;12.362;2023-03-01T18:32:13;24.58;;;9.80;;
71896;SDS011;59767;51.344;12.362;2023-03-01T18:35:17;19.88;;;8.65;;
71896;SDS011;59767;51.344;12.362;2023-03-01T18:38:21;20.70;;;7.82;;
71896;SDS011;59767;51.344;12.362;2023-03-01T18:41:26;19.00;;;7.55;;
71896;SDS011;59767;51.344;12.362;2023-03-01T18:44:35;21.60;;;8.40;;
71896;SDS011;59767;51.344;12.362;2023-03-01T18:47:39;22.88;;;8.48;;
71896;SDS011;59767;51.344;12.362;2023-03-01T18:50:43;21.95;;;8.88;;
71896;SDS011;59767;51.344;12.362;2023-03-01T18:53:48;19.92;;;8.02;;
71896;SDS011;59767;51.344;12.362;2023-03-01T18:56:52;16.73;;;7.65;;
71896;SDS011;59767;51.344;12.362;2023-03-01T18:59:56;19.88;;;8.07;;
71896;SDS011;59767;51.344;12.362;2023-03-01T19:03:00;19.45;;;8.38;;
71896;SDS011;59767;51.344;12.362;2023-03-01T19:06:05;20.75;;;9.02;;
71896;SDS011;59767;51.344;12.362;2023-03-01T19:09:09;24.50;;;9.68;;
71896;SDS011;59767;51.344;12.362;2023-03-01T19:12:14;21.58;;;8.50;;
71896;SDS011;59767;51.344;12.362;2023-03-01T19:15:18;20.85;;;9.02;;
71896;SDS011;59767;51.344;12.362;2023-03-01T19:18:22;20.33;;;8.60;;
71896;SDS011;59767;51.344;12.362;2023-03-01T19:21:27;17.92;;;8.30;;
71896;SDS011;59767;51.344;12.362;2023-03-01T19:24:34;17.33;;;8.15;;
71896;SDS011;59767;51.344;12.362;2023-03-01T19:27:38;16.17;;;7.53;;
71896;SDS011;59767;51.344;12.362;2023-03-01T19:30:42;18.15;;;7.80;;
71896;SDS011;59767;51.344;12.362;2023-03-01T19:33:46;16.90;;;7.78;;
71896;SDS011;59767;51.344;12.362;2023-03-01T19:36:50;18.45;;;7.85;;
71896;SDS011;59767;51.344;12.362;2023-03-01T19:39:55;15.55;;;7.43;;